TimeEST,TemperatureF,Dew PointF,Humidity,Sea Level PressureIn,VisibilityMPH,Wind Direction,Wind SpeedMPH,Gust SpeedMPH,PrecipitationIn,Events,Conditions,WindDirDegrees,DateUTC
12:15 AM,34.3,32.9,94,29.81,0.2,ESE,3.5,-,N/A,Fog,Fog,120,2013-02-14 05:15:00
12:35 AM,34.0,32.9,96,29.81,0.2,Calm,Calm,-,N/A,Fog,Fog,0,2013-02-14 05:35:00
12:55 AM,34.0,32.9,96,29.82,0.5,Calm,Calm,-,N/A,Fog,Fog,0,2013-02-14 05:55:00
1:15 AM,33.8,32.4,94,29.82,0.2,Calm,Calm,-,N/A,Fog,Fog,0,2013-02-14 06:15:00
1:35 AM,33.1,32.0,96,29.82,0.2,Calm,Calm,-,N/A,Fog,Fog,0,2013-02-14 06:35:00
1:55 AM,33.3,32.0,95,29.83,0.2,Calm,Calm,-,N/A,Fog,Fog,0,2013-02-14 06:55:00
2:15 AM,32.9,32.0,96,29.84,0.2,Calm,Calm,-,N/A,Fog,Fog,0,2013-02-14 07:15:00
2:35 AM,32.0,31.3,97,29.85,0.2,Calm,Calm,-,N/A,Fog,Fog,0,2013-02-14 07:35:00
2:55 AM,31.1,30.2,96,29.86,0.2,WNW,4.6,-,N/A,Fog,Light Freezing Fog,300,2013-02-14 07:55:00
3:15 AM,31.1,30.0,96,29.87,1.5,Calm,Calm,-,N/A,,Mostly Cloudy,0,2013-02-14 08:15:00
3:35 AM,30.9,29.8,96,29.87,0.8,Calm,Calm,-,N/A,,Mostly Cloudy,0,2013-02-14 08:35:00
3:55 AM,31.8,30.9,96,29.88,7.0,Calm,Calm,-,N/A,,Scattered Clouds,0,2013-02-14 08:55:00
4:15 AM,30.4,29.1,95,29.88,7.0,Calm,Calm,-,N/A,,Clear,0,2013-02-14 09:15:00
4:35 AM,30.2,28.8,94,29.91,4.0,Calm,Calm,-,N/A,,Clear,0,2013-02-14 09:35:00
4:55 AM,29.7,27.7,92,29.91,7.0,Calm,Calm,-,N/A,,Clear,0,2013-02-14 09:55:00
5:15 AM,30.2,27.7,90,29.92,7.0,Calm,Calm,-,N/A,,Clear,0,2013-02-14 10:15:00
5:35 AM,29.3,26.6,90,29.92,10.0,Calm,Calm,-,N/A,,Clear,0,2013-02-14 10:35:00
5:55 AM,28.9,25.7,88,29.93,10.0,Calm,Calm,-,N/A,,Clear,0,2013-02-14 10:55:00
6:15 AM,29.1,27.0,92,29.93,7.0,Calm,Calm,-,N/A,,Clear,0,2013-02-14 11:15:00
6:35 AM,26.4,23.9,90,29.93,5.0,Calm,Calm,-,N/A,,Clear,0,2013-02-14 11:35:00
6:55 AM,27.5,25.5,92,29.94,5.0,Calm,Calm,-,N/A,,Clear,0,2013-02-14 11:55:00
7:15 AM,26.6,24.3,91,29.95,5.0,SSE,3.5,-,N/A,,Clear,160,2013-02-14 12:15:00
7:35 AM,27.1,25.2,92,29.96,4.0,Calm,Calm,-,N/A,,Clear,0,2013-02-14 12:35:00
7:55 AM,28.6,26.1,90,29.97,5.0,Calm,Calm,-,N/A,,Clear,0,2013-02-14 12:55:00
8:15 AM,29.8,27.9,92,29.98,5.0,Calm,Calm,-,N/A,,Clear,0,2013-02-14 13:15:00
8:35 AM,32.0,29.3,90,29.99,10.0,Calm,Calm,-,N/A,,Clear,0,2013-02-14 13:35:00
8:55 AM,33.6,30.0,87,30.00,10.0,Calm,Calm,-,N/A,,Clear,0,2013-02-14 13:55:00
9:15 AM,35.2,28.2,76,30.00,10.0,Calm,Calm,-,N/A,,Clear,0,2013-02-14 14:15:00
9:35 AM,37.2,28.9,72,30.01,10.0,Calm,Calm,-,N/A,,Clear,0,2013-02-14 14:35:00
9:55 AM,38.5,27.9,66,30.01,10.0,Calm,Calm,-,N/A,,Clear,0,2013-02-14 14:55:00
10:15 AM,39.6,25.9,58,30.01,10.0,SW,4.6,-,N/A,,Clear,230,2013-02-14 15:15:00
10:35 AM,40.1,26.2,58,30.00,10.0,South,4.6,-,N/A,,Clear,170,2013-02-14 15:35:00
10:55 AM,40.6,24.3,52,30.01,10.0,Calm,Calm,-,N/A,,Clear,0,2013-02-14 15:55:00
11:15 AM,41.9,24.8,51,30.01,10.0,SSW,3.5,-,N/A,,Clear,200,2013-02-14 16:15:00
11:35 AM,42.4,24.6,49,30.01,10.0,SW,6.9,-,N/A,,Clear,230,2013-02-14 16:35:00
11:55 AM,43.5,24.8,48,30.01,10.0,SW,5.8,-,N/A,,Clear,230,2013-02-14 16:55:00
12:15 PM,44.6,25.9,48,30.01,10.0,South,5.8,-,N/A,,Clear,180,2013-02-14 17:15:00
12:35 PM,44.4,24.8,46,29.99,10.0,Calm,Calm,-,N/A,,Clear,0,2013-02-14 17:35:00
12:55 PM,45.9,24.6,43,29.98,10.0,SW,3.5,-,N/A,,Clear,220,2013-02-14 17:55:00
1:15 PM,46.2,23.9,42,29.97,10.0,Calm,Calm,-,N/A,,Clear,0,2013-02-14 18:15:00
1:35 PM,47.7,23.2,38,29.96,10.0,SW,5.8,-,N/A,,Clear,230,2013-02-14 18:35:00
1:55 PM,47.5,23.5,39,29.96,10.0,SSW,6.9,-,N/A,,Clear,210,2013-02-14 18:55:00
2:15 PM,48.7,23.4,37,29.96,10.0,South,5.8,-,N/A,,Clear,190,2013-02-14 19:15:00
2:35 PM,49.1,23.9,37,29.95,10.0,SW,6.9,-,N/A,,Clear,220,2013-02-14 19:35:00
2:55 PM,49.1,24.3,38,29.95,10.0,South,6.9,-,N/A,,Clear,190,2013-02-14 19:55:00
3:15 PM,49.5,23.2,36,29.95,10.0,WSW,6.9,-,N/A,,Clear,240,2013-02-14 20:15:00
3:35 PM,50.0,23.7,36,29.94,10.0,SSW,6.9,-,N/A,,Clear,200,2013-02-14 20:35:00
3:55 PM,49.6,23.2,35,29.93,10.0,SW,6.9,-,N/A,,Clear,220,2013-02-14 20:55:00
4:15 PM,50.2,23.0,35,29.93,10.0,SSW,5.8,-,N/A,,Clear,210,2013-02-14 21:15:00
4:35 PM,50.0,23.0,35,29.94,10.0,WSW,9.2,-,N/A,,Clear,240,2013-02-14 21:35:00
4:55 PM,49.5,23.4,36,29.95,10.0,SSW,6.9,-,N/A,,Clear,210,2013-02-14 21:55:00
5:15 PM,48.9,24.8,39,29.94,10.0,SSW,6.9,-,N/A,,Clear,200,2013-02-14 22:15:00
5:35 PM,47.7,24.6,41,29.95,10.0,SSW,9.2,-,N/A,,Clear,210,2013-02-14 22:35:00
5:55 PM,46.4,23.9,41,29.96,10.0,SSW,8.1,-,N/A,,Clear,200,2013-02-14 22:55:00
6:15 PM,45.7,23.9,42,29.96,10.0,South,8.1,-,N/A,,Clear,190,2013-02-14 23:15:00
6:35 PM,43.7,23.9,46,29.97,10.0,South,5.8,-,N/A,,Clear,180,2013-02-14 23:35:00
6:55 PM,41.4,24.4,51,29.98,10.0,Calm,Calm,-,N/A,,Clear,0,2013-02-14 23:55:00
7:15 PM,39.9,24.8,55,29.98,10.0,Calm,Calm,-,N/A,,Clear,0,2013-02-15 00:15:00
7:35 PM,41.7,24.6,51,29.98,10.0,Calm,Calm,-,N/A,,Clear,0,2013-02-15 00:35:00
7:55 PM,39.7,24.8,55,29.98,10.0,Calm,Calm,-,N/A,,Clear,0,2013-02-15 00:55:00
8:15 PM,35.4,25.0,66,29.98,10.0,Calm,Calm,-,N/A,,Clear,0,2013-02-15 01:15:00
8:35 PM,32.0,24.8,75,29.98,10.0,Calm,Calm,-,N/A,,Clear,0,2013-02-15 01:35:00
8:55 PM,32.5,25.3,75,29.98,10.0,Calm,Calm,-,N/A,,Clear,0,2013-02-15 01:55:00
9:15 PM,30.9,24.6,77,29.98,10.0,Calm,Calm,-,N/A,,Clear,0,2013-02-15 02:15:00
9:35 PM,30.9,24.3,76,29.98,10.0,Calm,Calm,-,N/A,,Clear,0,2013-02-15 02:35:00
9:55 PM,32.9,25.0,73,29.99,10.0,Calm,Calm,-,N/A,,Clear,0,2013-02-15 02:55:00
10:15 PM,32.4,24.4,73,29.99,10.0,Calm,Calm,-,N/A,,Clear,0,2013-02-15 03:15:00
10:35 PM,30.9,24.3,76,29.99,10.0,Calm,Calm,-,N/A,,Clear,0,2013-02-15 03:35:00
10:55 PM,31.3,25.0,77,29.99,10.0,Calm,Calm,-,N/A,,Clear,0,2013-02-15 03:55:00
11:15 PM,29.5,24.1,80,29.99,10.0,Calm,Calm,-,N/A,,Clear,0,2013-02-15 04:15:00
11:35 PM,29.8,24.4,80,29.99,10.0,Calm,Calm,-,N/A,,Clear,0,2013-02-15 04:35:00
11:55 PM,29.5,23.2,77,29.99,10.0,Calm,Calm,-,N/A,,Clear,0,2013-02-15 04:55:00